Kissimmee Gateway Airport Orlando US
ICAO: KISM
IATA: ISM
Category: Medium
Scheduled Services: No

Elevation: 82 ft
TransAlt. 18000 ft.

Airport Communications:
ORLANDO APP/DEP:119.4
AWOS 3:128.775
ORLANDO CLNC DEL:119.95
CTAF:124.45
GND:121.7
TWR:124.45
UNICOM:122.95

KISM Zoom In..

Runways:

(A) RW 06 length 5001 ft width 150 ft
---- / hdg 63

(B) RW 15 length 6001 ft width 100 ft
ILS 109.75 / hdg 153

(C) RW 24 length 5001 ft width 150 ft
---- / hdg 243

(D) RW 33 length 6001 ft width 100 ft
---- / hdg 333

Location; KISM
Day. 23 / Time. 01.56 Zulu
* Altimeter: 29.89
* Temperature: 23° c. 73.4°f.
* Wind from: 160° Speed 08 kn.
Dewpoint: 23° c.
Visibility: 9 Statute Miles.
Clouds: Few 2700 ft.
Clouds: Broken 4300 ft.
Clouds: Overcast 5000 ft.
Conditions: Rain.

KISM 230156Z 16008KT 9SM RA FEW027 BKN043 OVC050 23/23 A2989


Wind From 160°
Speed 08 kn.

 
 
jpsmedia.com for Web Design worldairports.se 2018   terms of use